Aviation Digital Data Service (ADDS)

Output produced by METARs form (2058 UTC 22 June 2018)
found at http://aviationweather.gov/adds/metars/
 
KSTS 222053Z COR 21007KT 10SM FEW300 33/12 A2987 RMK AO2 SLP108 T03280117 58020
KSTS 221720Z 2218/2318 00000KT P6SM SKC 
     FM222000 16006KT P6SM SCT250 
     FM222200 15010KT P6SM SCT250 
     FM230400 VRB04KT P6SM SKC 
     FM230800 00000KT P6SM SKC